createdAt,value
2018-09-23T00:00:19.644Z,100545.14
2018-09-23T00:10:23.874Z,100536.75
2018-09-23T00:20:26.900Z,100533.80
2018-09-23T00:40:32.662Z,100519.41
2018-09-23T00:50:35.946Z,100506.04
2018-09-23T01:00:39.154Z,100501.49
2018-09-23T01:10:42.697Z,100482.83
2018-09-23T01:20:49.171Z,100481.40
2018-09-23T01:30:52.136Z,100493.18
2018-09-23T01:40:56.616Z,100481.23
2018-09-23T01:51:00.745Z,100475.37
2018-09-23T02:01:04.025Z,100476.09
2018-09-23T02:11:07.549Z,100465.48
2018-09-23T02:21:10.947Z,100453.17
2018-09-23T02:31:14.196Z,100441.39
2018-09-23T02:41:17.451Z,100430.26
2018-09-23T02:51:22.893Z,100435.46
2018-09-23T03:01:27.133Z,100425.73
2018-09-23T03:11:31.549Z,100414.55
2018-09-23T03:21:35.913Z,100406.80
2018-09-23T03:31:39.573Z,100406.33
2018-09-23T03:41:42.872Z,100382.16
2018-09-23T03:51:46.829Z,100369.30
2018-09-23T04:01:49.989Z,100364.45
2018-09-23T04:11:53.091Z,100358.28
2018-09-23T04:21:56.333Z,100347.16
2018-09-23T04:32:00.478Z,100354.75
2018-09-23T04:42:03.515Z,100332.62
2018-09-23T04:52:07.489Z,100329.16
2018-09-23T05:02:11.673Z,100325.53
2018-09-23T05:12:14.809Z,100326.25
2018-09-23T05:22:18.509Z,100338.69
2018-09-23T05:32:21.708Z,100321.60
2018-09-23T05:42:24.788Z,100305.14
2018-09-23T05:52:28.027Z,100306.10
2018-09-23T06:02:31.090Z,100302.13
2018-09-23T06:12:34.233Z,100273.31
2018-09-23T06:22:37.429Z,100253.20
2018-09-23T06:32:40.517Z,100227.92
2018-09-23T06:42:43.648Z,100259.75
2018-09-23T06:52:46.817Z,100257.31
2018-09-23T07:02:50.010Z,100223.78
2018-09-23T07:12:53.075Z,100233.56
2018-09-23T07:22:56.213Z,100245.39
2018-09-23T07:32:59.358Z,100236.50
2018-09-23T07:43:02.460Z,100227.28
2018-09-23T07:53:05.936Z,100230.16
2018-09-23T08:03:09.085Z,100208.38
2018-09-23T08:13:12.316Z,100192.13
2018-09-23T08:23:15.396Z,100215.79
2018-09-23T08:33:18.422Z,100213.60
2018-09-23T08:43:21.629Z,100187.39
2018-09-23T08:53:24.746Z,100188.69
2018-09-23T09:03:27.830Z,100173.44
2018-09-23T09:13:30.984Z,100148.70
2018-09-23T09:23:34.092Z,100149.02
2018-09-23T09:33:37.434Z,100136.03
2018-09-23T09:43:40.599Z,100108.25
2018-09-23T09:53:43.753Z,100093.95
2018-09-23T10:03:47.121Z,100085.63
2018-09-23T10:13:51.327Z,100044.82
2018-09-23T10:23:54.632Z,100049.16
2018-09-23T10:33:57.670Z,100043.05
2018-09-23T10:44:00.788Z,100020.91
2018-09-23T10:54:03.990Z,99991.66
2018-09-23T11:04:07.097Z,99981.34
2018-09-23T11:14:11.523Z,99955.95
2018-09-23T11:24:14.717Z,99930.61
2018-09-23T11:34:18.026Z,99893.75
2018-09-23T11:44:21.143Z,99873.27
2018-09-23T11:54:24.346Z,99843.78
2018-09-23T12:04:27.444Z,99788.99
2018-09-23T12:14:30.524Z,99739.09
2018-09-23T12:24:34.233Z,99702.34
2018-09-23T12:34:37.421Z,99654.88
2018-09-23T12:44:40.561Z,99606.70
2018-09-23T12:54:43.726Z,99554.84
2018-09-23T13:04:46.886Z,99504.61
2018-09-23T13:14:50.129Z,99451.94
2018-09-23T13:24:53.411Z,99411.14
2018-09-23T13:34:56.582Z,99366.97
2018-09-23T13:44:59.809Z,99301.13
2018-09-23T13:55:02.935Z,99257.98
2018-09-23T14:05:06.182Z,99232.19
2018-09-23T14:15:09.257Z,99184.64
2018-09-23T14:25:12.377Z,99125.80
2018-09-23T14:35:15.525Z,99060.09
2018-09-23T14:45:18.674Z,99020.01
2018-09-23T14:55:21.773Z,98953.96
2018-09-23T15:05:25.013Z,98908.47
2018-09-23T15:15:28.153Z,98867.88
2018-09-23T15:25:31.187Z,98878.77
2018-09-23T15:35:34.401Z,98815.98
2018-09-23T15:45:37.595Z,98732.70
2018-09-23T15:55:40.655Z,98666.22
2018-09-23T16:05:43.945Z,98664.63
2018-09-23T16:15:47.504Z,98738.05
2018-09-23T16:25:50.742Z,98694.41
2018-09-23T16:35:53.808Z,98712.87
2018-09-23T16:45:57.102Z,98791.50
2018-09-23T16:56:00.424Z,98551.44
2018-09-23T17:06:03.478Z,98738.84
2018-09-23T17:16:06.641Z,98716.41
2018-09-23T17:26:09.794Z,98771.95
2018-09-23T17:36:12.928Z,98717.30
2018-09-23T17:46:16.252Z,98593.63
2018-09-23T17:56:19.312Z,98651.64
2018-09-23T18:06:22.679Z,98841.39
2018-09-23T18:16:25.957Z,98809.27
2018-09-23T18:26:29.126Z,98893.97
2018-09-23T18:36:32.789Z,98916.76
2018-09-23T18:46:35.861Z,98960.34
2018-09-23T18:56:39.238Z,98965.36
2018-09-23T19:06:42.484Z,99009.68
2018-09-23T19:16:45.640Z,99127.22
2018-09-23T19:26:48.957Z,99188.52
2018-09-23T19:36:52.181Z,99193.00
2018-09-23T19:46:56.322Z,99202.31
2018-09-23T19:57:00.911Z,99391.50
2018-09-23T20:07:04.054Z,99459.34
2018-09-23T20:17:07.788Z,99391.37
2018-09-23T20:27:10.885Z,99460.56
2018-09-23T20:37:14.077Z,99607.43
2018-09-23T20:47:17.217Z,99677.75
2018-09-23T20:57:20.353Z,99713.75
2018-09-23T21:07:23.522Z,99760.75
2018-09-23T21:17:26.630Z,99808.27
2018-09-23T21:27:29.790Z,99855.05
2018-09-23T21:37:33.197Z,99909.53
2018-09-23T21:47:36.390Z,99952.74
2018-09-23T21:57:39.733Z,99966.73
2018-09-23T22:07:44.392Z,100017.59
2018-09-23T22:17:47.921Z,100051.64
2018-09-23T22:27:52.428Z,100110.24
2018-09-23T22:37:55.417Z,100145.62
2018-09-23T22:47:58.558Z,100171.12
2018-09-23T22:58:02.508Z,100183.61
2018-09-23T23:08:06.138Z,100204.52
2018-09-23T23:18:09.506Z,100215.97
2018-09-23T23:28:12.586Z,100242.44
2018-09-23T23:38:17.098Z,100266.82
2018-09-23T23:48:20.313Z,100290.28
2018-09-23T23:58:24.096Z,100329.02
